createdAt,value
2019-04-29T00:00:52.645Z,99.90
2019-04-29T00:03:22.450Z,99.90
2019-04-29T00:05:51.824Z,99.90
2019-04-29T00:08:21.188Z,99.90
2019-04-29T00:10:50.578Z,99.90
2019-04-29T00:13:19.922Z,99.90
2019-04-29T00:16:06.741Z,99.90
2019-04-29T00:19:07.002Z,99.90
2019-04-29T00:21:36.386Z,99.90
2019-04-29T00:24:06.120Z,99.90
2019-04-29T00:26:35.423Z,99.90
2019-04-29T00:29:04.763Z,99.90
2019-04-29T00:31:34.171Z,99.90
2019-04-29T00:34:03.569Z,99.90
2019-04-29T00:36:38.713Z,99.90
2019-04-29T00:39:33.594Z,99.90
2019-04-29T00:42:37.035Z,99.90
2019-04-29T00:45:06.489Z,99.90
2019-04-29T00:47:35.882Z,99.90
2019-04-29T00:50:05.469Z,99.90
2019-04-29T00:52:34.874Z,99.90
2019-04-29T00:55:09.256Z,99.90
2019-04-29T00:57:38.644Z,99.90
2019-04-29T01:00:09.321Z,99.90
2019-04-29T01:02:38.701Z,99.90
2019-04-29T01:05:08.087Z,99.90
2019-04-29T01:07:39.598Z,99.90
2019-04-29T01:10:09.177Z,99.90
2019-04-29T01:12:38.657Z,99.90
2019-04-29T01:15:08.087Z,99.90
2019-04-29T01:17:37.524Z,99.90
2019-04-29T01:20:07.096Z,99.90
2019-04-29T01:22:36.399Z,99.90
2019-04-29T01:25:06.930Z,99.90
2019-04-29T01:27:41.804Z,99.90
2019-04-29T01:30:30.581Z,99.90
2019-04-29T01:33:00.247Z,99.90
2019-04-29T01:35:29.644Z,99.90
2019-04-29T01:37:59.045Z,99.90
2019-04-29T01:40:47.843Z,99.90
2019-04-29T01:43:17.256Z,99.90
2019-04-29T01:45:46.634Z,99.90
2019-04-29T01:48:16.019Z,99.90
2019-04-29T01:50:46.778Z,99.90
2019-04-29T01:53:16.154Z,99.90
2019-04-29T01:55:45.517Z,99.90
2019-04-29T01:58:14.977Z,99.90
2019-04-29T02:00:44.328Z,99.90
2019-04-29T02:03:13.670Z,99.90
2019-04-29T02:05:43.050Z,99.90
2019-04-29T02:08:12.402Z,99.90
2019-04-29T02:10:41.770Z,99.90
2019-04-29T02:13:11.141Z,99.90
2019-04-29T02:15:40.496Z,99.90
2019-04-29T02:18:09.916Z,99.90
2019-04-29T02:20:39.280Z,99.90
2019-04-29T02:23:42.482Z,99.90
2019-04-29T02:26:11.850Z,99.90
2019-04-29T02:28:41.223Z,99.90
2019-04-29T02:31:27.945Z,99.90
2019-04-29T02:33:57.343Z,99.90
2019-04-29T02:36:29.899Z,99.90
2019-04-29T02:39:09.751Z,99.90
2019-04-29T02:42:14.069Z,99.90
2019-04-29T02:44:43.529Z,99.90
2019-04-29T02:47:12.903Z,99.90
2019-04-29T02:49:42.533Z,99.90
2019-04-29T02:52:12.107Z,99.90
2019-04-29T02:54:41.790Z,99.90
2019-04-29T02:57:21.892Z,99.90
2019-04-29T02:59:53.887Z,99.90
2019-04-29T03:02:42.187Z,99.90
2019-04-29T03:05:28.825Z,99.90
2019-04-29T03:07:58.163Z,99.90
2019-04-29T03:10:27.657Z,99.90
2019-04-29T03:12:56.943Z,99.90
2019-04-29T03:15:34.115Z,99.90
2019-04-29T03:18:03.746Z,99.90
2019-04-29T03:20:52.081Z,99.90
2019-04-29T03:23:22.702Z,99.90
2019-04-29T03:25:52.019Z,99.90
2019-04-29T03:28:21.395Z,99.90
2019-04-29T03:30:50.750Z,99.90
2019-04-29T03:33:20.413Z,99.90
2019-04-29T03:35:49.793Z,99.90
2019-04-29T03:38:19.049Z,99.90
2019-04-29T03:40:48.337Z,99.90
2019-04-29T03:43:17.629Z,99.90
2019-04-29T03:45:46.984Z,99.90
2019-04-29T03:48:16.370Z,99.90
2019-04-29T03:50:45.749Z,99.90
2019-04-29T03:53:15.121Z,99.90
2019-04-29T03:55:44.485Z,99.90
2019-04-29T03:58:13.825Z,99.90
2019-04-29T04:00:44.777Z,99.90
2019-04-29T04:03:39.205Z,99.90
2019-04-29T04:06:17.450Z,99.90
2019-04-29T04:09:05.555Z,99.90
2019-04-29T04:11:24.039Z,99.90
2019-04-29T04:13:53.532Z,99.90
2019-04-29T04:16:40.522Z,99.90
2019-04-29T04:19:10.181Z,99.90
2019-04-29T04:21:39.530Z,99.90
2019-04-29T04:24:08.881Z,99.90
2019-04-29T04:26:38.204Z,99.90
2019-04-29T04:29:07.530Z,99.90
2019-04-29T04:31:37.158Z,99.90
2019-04-29T04:34:06.523Z,99.90
2019-04-29T04:36:35.812Z,99.90
2019-04-29T04:39:05.969Z,99.90
2019-04-29T04:41:35.375Z,99.90
2019-04-29T04:44:04.850Z,99.90
2019-04-29T04:46:34.193Z,99.90
2019-04-29T04:49:03.601Z,99.90
2019-04-29T04:51:32.952Z,99.90
2019-04-29T04:54:02.258Z,99.90
2019-04-29T04:56:31.545Z,99.90
2019-04-29T04:59:00.829Z,99.90
2019-04-29T05:01:30.183Z,99.90
2019-04-29T05:03:59.453Z,99.90
2019-04-29T05:06:28.848Z,99.90
2019-04-29T05:08:58.258Z,99.90
2019-04-29T05:11:27.590Z,99.90
2019-04-29T05:13:56.889Z,99.90
2019-04-29T05:16:26.547Z,99.90
2019-04-29T05:18:55.931Z,99.90
2019-04-29T05:21:25.298Z,99.90
2019-04-29T05:23:54.650Z,99.90
2019-04-29T05:26:24.019Z,99.90
2019-04-29T05:28:53.454Z,99.90
2019-04-29T05:31:22.910Z,99.90
2019-04-29T05:33:52.262Z,99.90
2019-04-29T05:36:39.365Z,99.90
2019-04-29T05:39:16.607Z,99.90
2019-04-29T05:41:45.900Z,99.90
2019-04-29T05:44:30.872Z,99.90
2019-04-29T05:47:06.754Z,99.90
2019-04-29T05:49:53.904Z,99.90
2019-04-29T05:52:41.127Z,99.90
2019-04-29T05:55:13.867Z,99.90
2019-04-29T05:57:41.442Z,99.90
2019-04-29T06:00:11.107Z,99.90
2019-04-29T06:02:40.443Z,99.90
2019-04-29T06:05:10.044Z,99.90
2019-04-29T06:07:39.358Z,99.90
2019-04-29T06:10:08.933Z,99.90
2019-04-29T06:12:38.340Z,99.90
2019-04-29T06:15:07.933Z,99.90
2019-04-29T06:17:40.211Z,99.90
2019-04-29T06:20:08.559Z,99.90
2019-04-29T06:22:41.810Z,99.90
2019-04-29T06:25:09.067Z,99.90
2019-04-29T06:27:38.473Z,99.90
2019-04-29T06:30:08.213Z,99.90
2019-04-29T06:32:37.595Z,99.90
2019-04-29T06:35:10.638Z,99.90
2019-04-29T06:37:38.077Z,99.90
2019-04-29T06:40:07.659Z,99.90
2019-04-29T06:42:36.993Z,99.90
2019-04-29T06:45:06.653Z,99.90
2019-04-29T06:47:35.957Z,99.90
2019-04-29T06:50:05.949Z,99.90
2019-04-29T06:52:35.367Z,99.90
2019-04-29T06:55:05.006Z,99.90
2019-04-29T06:57:34.531Z,99.90
2019-04-29T07:00:04.571Z,99.90
2019-04-29T07:02:34.111Z,99.90
2019-04-29T07:05:03.529Z,99.90
2019-04-29T07:07:32.984Z,99.90
2019-04-29T07:10:02.276Z,99.90
2019-04-29T07:12:31.643Z,99.90
2019-04-29T07:15:01.075Z,99.90
2019-04-29T07:17:30.453Z,99.90
2019-04-29T07:20:02.092Z,99.90
2019-04-29T07:22:31.215Z,99.90
2019-04-29T07:25:00.660Z,99.90
2019-04-29T07:27:30.103Z,99.90
2019-04-29T07:30:01.670Z,99.90
2019-04-29T07:32:32.433Z,99.90
2019-04-29T07:35:01.968Z,99.90
2019-04-29T07:37:34.027Z,99.90
2019-04-29T07:40:03.743Z,99.90
2019-04-29T07:42:33.461Z,99.90
2019-04-29T07:45:18.170Z,99.90
2019-04-29T07:47:56.379Z,99.90
2019-04-29T07:50:22.387Z,99.90
2019-04-29T07:52:51.191Z,99.90
2019-04-29T07:55:20.449Z,99.90
2019-04-29T07:57:52.168Z,99.90
2019-04-29T08:00:31.668Z,99.90
2019-04-29T08:03:01.430Z,99.60
2019-04-29T08:05:30.744Z,98.60
2019-04-29T08:08:00.916Z,98.50
2019-04-29T08:10:31.461Z,98.60
2019-04-29T08:13:00.948Z,98.00
2019-04-29T08:15:32.024Z,96.20
2019-04-29T08:18:06.700Z,95.70
2019-04-29T08:20:35.483Z,95.80
2019-04-29T08:23:04.212Z,95.90
2019-04-29T08:25:33.789Z,95.60
2019-04-29T08:28:03.228Z,94.30
2019-04-29T08:30:32.628Z,93.60
2019-04-29T08:33:01.941Z,94.20
2019-04-29T08:35:32.692Z,93.40
2019-04-29T08:38:02.310Z,92.80
2019-04-29T08:40:34.230Z,93.00
2019-04-29T08:43:22.427Z,93.00
2019-04-29T08:45:59.130Z,92.30
2019-04-29T08:48:28.505Z,91.20
2019-04-29T08:50:58.060Z,90.50
2019-04-29T08:53:27.519Z,90.00
2019-04-29T08:55:56.937Z,88.00
2019-04-29T08:58:26.297Z,87.60
2019-04-29T09:00:57.336Z,86.50
2019-04-29T09:03:39.701Z,85.40
2019-04-29T09:06:05.038Z,85.40
2019-04-29T09:08:32.917Z,83.30
2019-04-29T09:11:00.106Z,80.50
2019-04-29T09:13:29.484Z,75.90
2019-04-29T09:15:58.895Z,78.30
2019-04-29T09:18:28.280Z,79.20
2019-04-29T09:20:57.652Z,79.70
2019-04-29T09:23:29.461Z,79.70
2019-04-29T09:26:29.825Z,80.70
2019-04-29T09:29:03.859Z,80.70
2019-04-29T09:31:31.819Z,78.00
2019-04-29T09:34:06.677Z,75.90
2019-04-29T09:36:32.403Z,77.50
2019-04-29T09:39:02.055Z,76.30
2019-04-29T09:41:38.909Z,74.80
2019-04-29T09:44:30.393Z,75.60
2019-04-29T09:46:59.824Z,75.90
2019-04-29T09:49:29.216Z,76.30
2019-04-29T09:51:58.615Z,79.20
2019-04-29T09:54:28.006Z,79.80
2019-04-29T09:56:57.516Z,79.80
2019-04-29T09:59:41.411Z,79.10
2019-04-29T10:02:31.379Z,79.10
2019-04-29T10:05:18.696Z,78.80
2019-04-29T10:07:48.192Z,77.90
2019-04-29T10:10:17.568Z,78.70
2019-04-29T10:12:46.973Z,78.40
2019-04-29T10:15:18.375Z,77.90
2019-04-29T10:18:12.500Z,77.60
2019-04-29T10:20:54.232Z,78.70
2019-04-29T10:23:23.633Z,75.30
2019-04-29T10:25:53.051Z,74.70
2019-04-29T10:28:22.435Z,74.50
2019-04-29T10:30:51.832Z,75.30
2019-04-29T10:33:23.118Z,75.60
2019-04-29T10:35:52.644Z,74.90
2019-04-29T10:38:21.967Z,75.60
2019-04-29T10:41:11.816Z,75.60
2019-04-29T10:44:00.601Z,76.30
2019-04-29T10:46:48.808Z,75.20
2019-04-29T10:49:24.356Z,74.50
2019-04-29T10:51:57.938Z,71.80
2019-04-29T10:54:25.221Z,71.90
2019-04-29T10:56:54.615Z,71.80
2019-04-29T10:59:35.721Z,71.10
2019-04-29T11:02:39.359Z,70.00
2019-04-29T11:05:24.996Z,68.30
2019-04-29T11:07:58.110Z,68.00
2019-04-29T11:10:29.952Z,65.90
2019-04-29T11:12:59.539Z,65.70
2019-04-29T11:15:35.233Z,65.60
2019-04-29T11:18:05.219Z,66.00
2019-04-29T11:20:35.778Z,67.20
2019-04-29T11:23:16.428Z,68.30
2019-04-29T11:25:57.218Z,67.10
2019-04-29T11:28:27.201Z,65.70
2019-04-29T11:30:56.525Z,65.70
2019-04-29T11:33:40.030Z,65.50
2019-04-29T11:36:11.169Z,64.80
2019-04-29T11:38:41.101Z,64.00
2019-04-29T11:41:11.717Z,61.40
2019-04-29T11:43:41.616Z,61.60
2019-04-29T11:46:14.494Z,61.30
2019-04-29T11:48:42.152Z,61.10
2019-04-29T11:51:19.397Z,60.70
2019-04-29T11:53:49.109Z,61.60
2019-04-29T11:56:18.385Z,63.20
2019-04-29T11:59:06.700Z,62.70
2019-04-29T12:01:53.573Z,61.50
2019-04-29T12:04:33.540Z,59.80
2019-04-29T12:07:02.994Z,53.70
2019-04-29T12:09:33.080Z,48.20
2019-04-29T12:12:02.572Z,47.80
2019-04-29T12:14:50.908Z,44.60
2019-04-29T12:17:27.635Z,43.50
2019-04-29T12:19:59.650Z,42.10
2019-04-29T12:22:30.956Z,42.30
2019-04-29T12:25:00.024Z,45.30
2019-04-29T12:27:29.461Z,49.00
2019-04-29T12:29:59.609Z,52.30
2019-04-29T12:32:46.473Z,53.60
2019-04-29T12:35:29.989Z,53.60
2019-04-29T12:38:15.853Z,55.40
2019-04-29T12:41:20.886Z,57.20
2019-04-29T12:44:03.091Z,58.20
2019-04-29T12:46:41.579Z,64.60
2019-04-29T12:49:13.530Z,72.80
2019-04-29T12:51:41.959Z,75.90
2019-04-29T12:54:11.392Z,78.00
2019-04-29T12:56:43.027Z,80.10
2019-04-29T12:59:12.611Z,83.30
2019-04-29T13:02:04.410Z,83.50
2019-04-29T13:04:51.547Z,84.00
2019-04-29T13:07:35.363Z,85.50
2019-04-29T13:10:14.659Z,86.60
2019-04-29T13:12:44.466Z,86.90
2019-04-29T13:15:36.138Z,86.00
2019-04-29T13:18:18.375Z,84.60
2019-04-29T13:20:41.624Z,83.70
2019-04-29T13:23:17.434Z,81.40
2019-04-29T13:25:43.052Z,80.90
2019-04-29T13:28:12.434Z,80.50
2019-04-29T13:30:43.369Z,78.10
2019-04-29T13:33:16.461Z,76.60
2019-04-29T13:35:49.450Z,76.30
2019-04-29T13:38:14.810Z,77.20
2019-04-29T13:40:44.380Z,76.20
2019-04-29T13:43:13.885Z,73.50
2019-04-29T13:45:49.350Z,74.00
2019-04-29T13:48:54.908Z,71.20
2019-04-29T13:51:34.022Z,66.10
2019-04-29T13:53:47.126Z,57.70
2019-04-29T13:56:32.771Z,53.20
2019-04-29T13:58:47.448Z,50.50
2019-04-29T14:01:58.283Z,50.20
2019-04-29T14:04:40.601Z,48.10
2019-04-29T14:07:14.091Z,48.80
2019-04-29T14:09:41.592Z,48.60
2019-04-29T14:12:46.373Z,44.80
2019-04-29T14:14:42.283Z,40.90
2019-04-29T14:17:25.206Z,38.00
2019-04-29T14:19:42.766Z,36.50
2019-04-29T14:22:21.990Z,37.40
2019-04-29T14:24:46.563Z,36.70
2019-04-29T14:27:24.454Z,35.00
2019-04-29T14:29:45.376Z,34.30
2019-04-29T14:32:18.082Z,34.20
2019-04-29T14:34:57.973Z,36.30
2019-04-29T14:37:27.379Z,40.00
2019-04-29T14:39:56.773Z,41.50
2019-04-29T14:42:33.039Z,44.10
2019-04-29T14:45:24.143Z,46.70
2019-04-29T14:48:41.324Z,49.10
2019-04-29T14:50:58.580Z,51.00
2019-04-29T14:53:27.951Z,52.60
2019-04-29T14:55:57.422Z,54.30
2019-04-29T14:58:29.643Z,55.40
2019-04-29T15:01:12.012Z,57.20
2019-04-29T15:03:59.151Z,58.90
2019-04-29T15:06:29.273Z,63.60
2019-04-29T15:08:58.700Z,70.20
2019-04-29T15:11:33.225Z,73.70
2019-04-29T15:14:25.714Z,75.60
2019-04-29T15:17:01.442Z,77.10
2019-04-29T15:19:55.088Z,79.80
2019-04-29T15:22:24.558Z,81.30
2019-04-29T15:24:53.877Z,80.50
2019-04-29T15:27:23.346Z,80.50
2019-04-29T15:29:52.758Z,81.00
2019-04-29T15:32:23.733Z,80.90
2019-04-29T15:34:53.264Z,79.40
2019-04-29T15:37:22.685Z,77.40
2019-04-29T15:39:52.406Z,72.50
2019-04-29T15:42:21.905Z,62.70
2019-04-29T15:44:51.529Z,56.80
2019-04-29T15:47:22.351Z,50.70
2019-04-29T15:49:55.873Z,47.20
2019-04-29T15:52:25.807Z,44.80
2019-04-29T15:54:53.720Z,43.90
2019-04-29T15:57:23.177Z,42.50
2019-04-29T15:59:58.917Z,43.10
2019-04-29T16:02:23.632Z,44.00
2019-04-29T16:04:59.188Z,44.00
2019-04-29T16:07:51.533Z,43.30
2019-04-29T16:10:38.959Z,41.90
2019-04-29T16:13:09.760Z,42.10
2019-04-29T16:15:39.205Z,42.40
2019-04-29T16:18:10.739Z,42.70
2019-04-29T16:20:39.586Z,43.40
2019-04-29T16:23:08.968Z,43.60
2019-04-29T16:25:40.736Z,44.70
2019-04-29T16:28:09.363Z,46.50
2019-04-29T16:30:38.750Z,48.30
2019-04-29T16:33:14.358Z,50.30
2019-04-29T16:35:39.131Z,52.00
2019-04-29T16:38:11.769Z,53.80
2019-04-29T16:40:43.739Z,55.10
2019-04-29T16:43:27.302Z,54.90
2019-04-29T16:46:12.520Z,54.50
2019-04-29T16:48:41.899Z,54.80
2019-04-29T16:51:16.449Z,55.20
2019-04-29T16:53:42.800Z,55.90
2019-04-29T16:56:16.362Z,56.10
2019-04-29T16:58:44.535Z,56.60
2019-04-29T17:01:13.928Z,56.50
2019-04-29T17:03:43.432Z,56.70
2019-04-29T17:06:12.751Z,57.50
2019-04-29T17:09:04.949Z,56.60
2019-04-29T17:11:33.429Z,56.30
2019-04-29T17:14:03.683Z,55.10
2019-04-29T17:16:36.571Z,54.40
2019-04-29T17:19:06.207Z,54.40
2019-04-29T17:21:35.509Z,54.20
2019-04-29T17:24:05.066Z,54.40
2019-04-29T17:26:44.326Z,53.90
2019-04-29T17:29:49.153Z,54.10
2019-04-29T17:32:23.462Z,54.90
2019-04-29T17:35:17.001Z,54.50
2019-04-29T17:37:24.455Z,54.90
2019-04-29T17:39:53.771Z,54.90
2019-04-29T17:42:23.362Z,52.70
2019-04-29T17:44:52.785Z,52.90
2019-04-29T17:47:56.152Z,54.20
2019-04-29T17:50:46.341Z,55.90
2019-04-29T17:53:35.877Z,56.00
2019-04-29T17:56:11.320Z,56.00
2019-04-29T17:58:51.684Z,56.80
2019-04-29T18:01:42.878Z,54.80
2019-04-29T18:04:20.732Z,54.80
2019-04-29T18:07:10.565Z,55.20
2019-04-29T18:09:41.748Z,56.80
2019-04-29T18:12:18.829Z,58.60
2019-04-29T18:14:48.247Z,60.20
2019-04-29T18:17:26.830Z,62.90
2019-04-29T18:20:13.664Z,65.80
2019-04-29T18:22:59.768Z,68.30
2019-04-29T18:25:36.779Z,72.00
2019-04-29T18:28:06.234Z,74.60
2019-04-29T18:30:38.342Z,76.60
2019-04-29T18:33:06.752Z,77.70
2019-04-29T18:35:36.244Z,80.30
2019-04-29T18:38:07.649Z,82.70
2019-04-29T18:40:42.018Z,84.70
2019-04-29T18:43:07.722Z,86.60
2019-04-29T18:45:37.085Z,88.10
2019-04-29T18:48:09.127Z,89.70
2019-04-29T18:50:38.967Z,90.50
2019-04-29T18:53:08.272Z,91.00
2019-04-29T18:55:37.783Z,91.30
2019-04-29T18:58:07.166Z,91.40
2019-04-29T19:00:36.615Z,91.70
2019-04-29T19:03:06.669Z,92.30
2019-04-29T19:05:55.199Z,92.80
2019-04-29T19:08:26.675Z,93.30
2019-04-29T19:10:55.629Z,93.60
2019-04-29T19:13:26.074Z,93.90
2019-04-29T19:16:08.677Z,94.20
2019-04-29T19:18:26.839Z,94.40
2019-04-29T19:20:57.016Z,94.70
2019-04-29T19:23:29.477Z,95.30
2019-04-29T19:25:57.803Z,95.70
2019-04-29T19:28:30.646Z,96.10
2019-04-29T19:31:03.294Z,96.40
2019-04-29T19:33:30.646Z,96.60
2019-04-29T19:36:02.809Z,96.70
2019-04-29T19:38:32.202Z,96.80
2019-04-29T19:41:01.587Z,97.00
2019-04-29T19:43:31.030Z,97.10
2019-04-29T19:46:00.451Z,97.20
2019-04-29T19:48:29.764Z,97.30
2019-04-29T19:51:18.126Z,97.70
2019-04-29T19:53:30.229Z,97.70
2019-04-29T19:56:03.786Z,97.90
2019-04-29T19:58:31.821Z,98.00
2019-04-29T20:01:11.721Z,98.20
2019-04-29T20:03:37.353Z,98.40
2019-04-29T20:06:14.176Z,98.60
2019-04-29T20:08:53.582Z,98.90
2019-04-29T20:11:15.845Z,99.40
2019-04-29T20:13:52.045Z,99.30
2019-04-29T20:16:42.888Z,99.50
2019-04-29T20:19:27.433Z,99.60
2019-04-29T20:22:00.443Z,99.50
2019-04-29T20:24:28.251Z,99.60
2019-04-29T20:26:57.814Z,99.70
2019-04-29T20:29:33.831Z,99.90
2019-04-29T20:31:58.221Z,99.90
2019-04-29T20:34:28.347Z,99.90
2019-04-29T20:36:57.964Z,99.90
2019-04-29T20:39:27.538Z,99.90
2019-04-29T20:42:01.071Z,99.90
2019-04-29T20:44:28.203Z,99.90
2019-04-29T20:47:16.686Z,99.90
2019-04-29T20:49:30.893Z,99.90
2019-04-29T20:52:13.470Z,99.90
2019-04-29T20:54:45.108Z,99.90
2019-04-29T20:57:18.832Z,99.90
2019-04-29T20:59:50.301Z,99.90
2019-04-29T21:02:29.586Z,99.90
2019-04-29T21:04:48.931Z,99.90
2019-04-29T21:07:23.666Z,99.90
2019-04-29T21:09:49.528Z,99.90
2019-04-29T21:12:38.199Z,99.90
2019-04-29T21:15:15.030Z,99.90
2019-04-29T21:17:45.250Z,99.90
2019-04-29T21:20:14.380Z,99.90
2019-04-29T21:22:45.452Z,99.90
2019-04-29T21:25:14.923Z,99.90
2019-04-29T21:27:48.270Z,99.90
2019-04-29T21:30:16.736Z,99.90
2019-04-29T21:32:46.185Z,99.90
2019-04-29T21:35:25.027Z,99.90
2019-04-29T21:38:28.309Z,99.90
2019-04-29T21:41:03.034Z,99.90
2019-04-29T21:43:35.347Z,99.90
2019-04-29T21:46:05.756Z,99.90
2019-04-29T21:48:37.322Z,99.90
2019-04-29T21:51:06.885Z,99.90
2019-04-29T21:53:40.288Z,99.90
2019-04-29T21:56:09.375Z,99.90
2019-04-29T21:58:39.071Z,99.90
2019-04-29T22:01:09.410Z,99.90
2019-04-29T22:03:38.786Z,99.90
2019-04-29T22:06:08.152Z,99.90
2019-04-29T22:08:37.502Z,99.90
2019-04-29T22:11:07.117Z,99.90
2019-04-29T22:13:39.052Z,99.90
2019-04-29T22:16:11.485Z,99.90
2019-04-29T22:18:38.765Z,99.90
2019-04-29T22:21:10.147Z,99.90
2019-04-29T22:23:39.376Z,99.90
2019-04-29T22:26:08.709Z,99.90
2019-04-29T22:28:38.104Z,99.90
2019-04-29T22:31:07.723Z,99.90
2019-04-29T22:33:38.663Z,99.90
2019-04-29T22:36:10.227Z,99.90
2019-04-29T22:38:39.065Z,99.90
2019-04-29T22:41:11.924Z,99.90
2019-04-29T22:43:50.391Z,99.90
2019-04-29T22:46:19.857Z,99.90
2019-04-29T22:48:49.177Z,99.90
2019-04-29T22:51:18.950Z,99.90
2019-04-29T22:53:48.469Z,99.90
2019-04-29T22:56:17.810Z,99.90
2019-04-29T22:58:47.496Z,99.90
2019-04-29T23:01:17.736Z,99.90
2019-04-29T23:03:47.347Z,99.90
2019-04-29T23:06:16.784Z,99.90
2019-04-29T23:08:46.014Z,99.90
2019-04-29T23:11:15.356Z,99.90
2019-04-29T23:13:45.888Z,99.90
2019-04-29T23:16:15.820Z,99.90
2019-04-29T23:18:45.842Z,99.90
2019-04-29T23:21:42.874Z,99.90
2019-04-29T23:24:27.312Z,99.90
2019-04-29T23:26:56.737Z,99.90
2019-04-29T23:29:26.152Z,99.90
2019-04-29T23:31:59.838Z,99.90
2019-04-29T23:34:29.210Z,99.90
2019-04-29T23:36:57.702Z,99.90
2019-04-29T23:39:27.151Z,99.90
2019-04-29T23:41:56.506Z,99.90
2019-04-29T23:44:25.886Z,99.90
2019-04-29T23:46:55.148Z,99.90
2019-04-29T23:49:25.031Z,99.90
2019-04-29T23:51:54.501Z,99.90
2019-04-29T23:54:25.202Z,99.90
2019-04-29T23:57:16.323Z,99.90
